Weather at Halifax / Stanfield International Airport

Public forecast

Using degrees Celsius for public forecast. Weather courtesy of forecast.io.

Current aviation weather report (METAR) for Halifax / Stanfield International Airport

Retrieved 2021/10/26 06:00 UTC (46 seconds ago):

CYHZ 260600Z 14002KT 15SM FEW047 SCT067 SCT240 06/04 A3010 RMK SC2AC1CI1 SLP199

Aviation forecast (TAF) for Halifax / Stanfield International Airport

Retrieved 2021/10/26 06:39 UTC (0 seconds ago):

TAF CYHZ 260538Z 2606/2706 VRB03KT P6SM SCT050 BKN070 FM260900 08005KT P6SM BKN050 BKN180 FM261200 07008KT P6SM FEW004 SCT050 BKN180 FM261500 09010KT P6SM SCT080 BKN150 FM261800 10012KT P6SM BKN080 OVC120 BECMG 2618/2620 08012G22KT FM270000 08015G25KT P6SM SCT020 BKN040 FM270300 07015G30KT P6SM -SHRA BKN020 OVC040 RMK NXT FCST BY 260900Z